sensor_id;sensor_type;location;lat;lon;timestamp;P1;durP1;ratioP1;P2;durP2;ratioP2
1122;SDS011;548;48.778;9.252;2022-10-16T01:49:59;18.23;;;16.53;;
1122;SDS011;548;48.778;9.252;2022-10-16T01:52:29;16.40;;;15.70;;
1122;SDS011;548;48.778;9.252;2022-10-16T01:54:59;17.57;;;16.20;;
1122;SDS011;548;48.778;9.252;2022-10-16T01:57:30;16.23;;;15.43;;
1122;SDS011;548;48.778;9.252;2022-10-16T02:00:00;17.23;;;16.07;;
1122;SDS011;548;48.778;9.252;2022-10-16T02:02:33;16.63;;;15.93;;
1122;SDS011;548;48.778;9.252;2022-10-16T02:05:02;17.50;;;16.33;;
1122;SDS011;548;48.778;9.252;2022-10-16T02:07:36;16.93;;;16.13;;
1122;SDS011;548;48.778;9.252;2022-10-16T02:10:03;16.67;;;15.80;;
1122;SDS011;548;48.778;9.252;2022-10-16T02:12:31;17.73;;;16.93;;
1122;SDS011;548;48.778;9.252;2022-10-16T02:15:01;16.10;;;15.40;;
1122;SDS011;548;48.778;9.252;2022-10-16T02:17:28;17.10;;;16.30;;
1122;SDS011;548;48.778;9.252;2022-10-16T02:19:56;18.00;;;17.00;;
1122;SDS011;548;48.778;9.252;2022-10-16T02:22:27;16.87;;;16.00;;
1122;SDS011;548;48.778;9.252;2022-10-16T02:24:57;17.60;;;16.37;;
1122;SDS011;548;48.778;9.252;2022-10-16T02:27:30;16.87;;;15.97;;
1122;SDS011;548;48.778;9.252;2022-10-16T02:30:02;17.60;;;16.60;;
1122;SDS011;548;48.778;9.252;2022-10-16T02:32:33;17.20;;;16.20;;
1122;SDS011;548;48.778;9.252;2022-10-16T02:35:03;16.00;;;15.13;;
1122;SDS011;548;48.778;9.252;2022-10-16T02:37:31;16.00;;;15.10;;
1122;SDS011;548;48.778;9.252;2022-10-16T02:39:58;15.33;;;14.30;;
1122;SDS011;548;48.778;9.252;2022-10-16T02:42:29;16.83;;;15.90;;
1122;SDS011;548;48.778;9.252;2022-10-16T02:44:59;17.80;;;16.60;;
1122;SDS011;548;48.778;9.252;2022-10-16T02:47:26;16.60;;;15.90;;
1122;SDS011;548;48.778;9.252;2022-10-16T02:49:53;17.67;;;16.77;;
1122;SDS011;548;48.778;9.252;2022-10-16T02:52:21;17.20;;;16.30;;
1122;SDS011;548;48.778;9.252;2022-10-16T02:54:48;17.17;;;16.07;;
1122;SDS011;548;48.778;9.252;2022-10-16T02:57:14;16.00;;;15.20;;
1122;SDS011;548;48.778;9.252;2022-10-16T02:59:41;17.13;;;16.03;;
1122;SDS011;548;48.778;9.252;2022-10-16T03:02:08;16.50;;;15.43;;
1122;SDS011;548;48.778;9.252;2022-10-16T03:04:35;18.03;;;16.60;;
1122;SDS011;548;48.778;9.252;2022-10-16T03:07:02;18.17;;;16.70;;
1122;SDS011;548;48.778;9.252;2022-10-16T03:09:30;17.23;;;16.33;;
1122;SDS011;548;48.778;9.252;2022-10-16T03:11:57;16.60;;;15.90;;
1122;SDS011;548;48.778;9.252;2022-10-16T03:14:23;15.90;;;15.30;;
1122;SDS011;548;48.778;9.252;2022-10-16T03:16:50;16.07;;;15.27;;
1122;SDS011;548;48.778;9.252;2022-10-16T03:19:17;17.03;;;15.60;;
1122;SDS011;548;48.778;9.252;2022-10-16T03:21:44;17.10;;;15.97;;
1122;SDS011;548;48.778;9.252;2022-10-16T03:24:11;17.10;;;16.30;;
1122;SDS011;548;48.778;9.252;2022-10-16T03:26:39;17.90;;;16.73;;
1122;SDS011;548;48.778;9.252;2022-10-16T03:29:06;16.97;;;16.07;;
1122;SDS011;548;48.778;9.252;2022-10-16T03:31:32;16.97;;;15.97;;
1122;SDS011;548;48.778;9.252;2022-10-16T03:33:59;16.67;;;15.97;;
1122;SDS011;548;48.778;9.252;2022-10-16T03:36:26;17.27;;;16.37;;
1122;SDS011;548;48.778;9.252;2022-10-16T03:38:52;16.93;;;15.70;;
1122;SDS011;548;48.778;9.252;2022-10-16T03:41:19;17.20;;;16.00;;
1122;SDS011;548;48.778;9.252;2022-10-16T03:43:47;17.00;;;16.10;;
1122;SDS011;548;48.778;9.252;2022-10-16T03:46:14;18.20;;;16.73;;
1122;SDS011;548;48.778;9.252;2022-10-16T03:48:41;16.73;;;15.83;;
1122;SDS011;548;48.778;9.252;2022-10-16T03:51:07;18.03;;;16.93;;
1122;SDS011;548;48.778;9.252;2022-10-16T03:53:34;20.93;;;18.00;;
1122;SDS011;548;48.778;9.252;2022-10-16T03:56:01;17.90;;;16.53;;
1122;SDS011;548;48.778;9.252;2022-10-16T03:58:27;17.43;;;16.43;;
1122;SDS011;548;48.778;9.252;2022-10-16T04:00:56;18.17;;;17.27;;
1122;SDS011;548;48.778;9.252;2022-10-16T04:03:22;17.00;;;16.20;;
1122;SDS011;548;48.778;9.252;2022-10-16T04:05:49;17.30;;;16.50;;
1122;SDS011;548;48.778;9.252;2022-10-16T04:08:16;16.80;;;16.00;;
1122;SDS011;548;48.778;9.252;2022-10-16T04:10:43;17.23;;;16.30;;
1122;SDS011;548;48.778;9.252;2022-10-16T04:13:10;17.57;;;16.60;;
1122;SDS011;548;48.778;9.252;2022-10-16T04:15:37;17.73;;;16.43;;
1122;SDS011;548;48.778;9.252;2022-10-16T04:18:05;17.17;;;16.30;;
1122;SDS011;548;48.778;9.252;2022-10-16T04:20:32;17.30;;;16.50;;
1122;SDS011;548;48.778;9.252;2022-10-16T04:22:59;17.77;;;16.80;;
1122;SDS011;548;48.778;9.252;2022-10-16T04:25:25;17.87;;;16.67;;
1122;SDS011;548;48.778;9.252;2022-10-16T04:27:52;17.10;;;16.30;;
1122;SDS011;548;48.778;9.252;2022-10-16T04:30:19;16.73;;;15.93;;
1122;SDS011;548;48.778;9.252;2022-10-16T04:32:47;15.93;;;15.23;;
1122;SDS011;548;48.778;9.252;2022-10-16T04:35:15;16.80;;;16.00;;
1122;SDS011;548;48.778;9.252;2022-10-16T04:37:42;18.10;;;16.87;;
1122;SDS011;548;48.778;9.252;2022-10-16T04:40:09;17.17;;;16.47;;
1122;SDS011;548;48.778;9.252;2022-10-16T04:42:36;17.20;;;16.30;;
1122;SDS011;548;48.778;9.252;2022-10-16T04:45:03;16.40;;;15.70;;
1122;SDS011;548;48.778;9.252;2022-10-16T04:47:31;16.50;;;15.70;;
1122;SDS011;548;48.778;9.252;2022-10-16T04:49:58;17.67;;;16.53;;
1122;SDS011;548;48.778;9.252;2022-10-16T04:52:28;16.83;;;16.13;;
1122;SDS011;548;48.778;9.252;2022-10-16T04:54:56;17.30;;;16.30;;
1122;SDS011;548;48.778;9.252;2022-10-16T04:57:26;16.93;;;16.03;;
1122;SDS011;548;48.778;9.252;2022-10-16T04:59:53;16.50;;;15.80;;
1122;SDS011;548;48.778;9.252;2022-10-16T05:02:19;17.43;;;16.73;;
1122;SDS011;548;48.778;9.252;2022-10-16T05:04:46;17.13;;;16.33;;
1122;SDS011;548;48.778;9.252;2022-10-16T05:07:13;17.80;;;16.90;;
1122;SDS011;548;48.778;9.252;2022-10-16T05:09:41;18.40;;;17.53;;
1122;SDS011;548;48.778;9.252;2022-10-16T05:12:08;18.80;;;17.60;;
1122;SDS011;548;48.778;9.252;2022-10-16T05:14:34;17.37;;;16.47;;
1122;SDS011;548;48.778;9.252;2022-10-16T05:17:01;17.63;;;16.60;;
1122;SDS011;548;48.778;9.252;2022-10-16T05:19:28;16.97;;;16.27;;
1122;SDS011;548;48.778;9.252;2022-10-16T05:21:55;17.83;;;16.60;;
1122;SDS011;548;48.778;9.252;2022-10-16T05:24:21;18.10;;;16.80;;
1122;SDS011;548;48.778;9.252;2022-10-16T05:26:50;17.10;;;16.27;;
1122;SDS011;548;48.778;9.252;2022-10-16T05:29:17;16.67;;;15.97;;
1122;SDS011;548;48.778;9.252;2022-10-16T05:31:44;16.27;;;15.10;;
1122;SDS011;548;48.778;9.252;2022-10-16T05:34:11;17.43;;;16.73;;
1122;SDS011;548;48.778;9.252;2022-10-16T05:36:37;16.93;;;16.03;;
1122;SDS011;548;48.778;9.252;2022-10-16T05:39:04;17.50;;;16.50;;
1122;SDS011;548;48.778;9.252;2022-10-16T05:41:31;17.90;;;16.53;;
1122;SDS011;548;48.778;9.252;2022-10-16T05:43:59;17.20;;;16.00;;
1122;SDS011;548;48.778;9.252;2022-10-16T05:46:25;16.40;;;15.60;;
1122;SDS011;548;48.778;9.252;2022-10-16T05:48:52;17.60;;;16.50;;
1122;SDS011;548;48.778;9.252;2022-10-16T05:51:19;17.90;;;17.00;;
1122;SDS011;548;48.778;9.252;2022-10-16T05:53:46;18.10;;;17.20;;
1122;SDS011;548;48.778;9.252;2022-10-16T05:56:12;17.93;;;16.77;;
1122;SDS011;548;48.778;9.252;2022-10-16T05:58:39;18.60;;;17.43;;
1122;SDS011;548;48.778;9.252;2022-10-16T06:01:09;18.90;;;17.60;;
1122;SDS011;548;48.778;9.252;2022-10-16T06:03:38;16.77;;;16.00;;
1122;SDS011;548;48.778;9.252;2022-10-16T06:06:08;17.43;;;16.43;;
1122;SDS011;548;48.778;9.252;2022-10-16T06:08:36;17.67;;;16.80;;
1122;SDS011;548;48.778;9.252;2022-10-16T06:11:03;18.00;;;17.03;;
1122;SDS011;548;48.778;9.252;2022-10-16T06:13:31;18.50;;;17.43;;
1122;SDS011;548;48.778;9.252;2022-10-16T06:15:58;18.77;;;17.53;;
1122;SDS011;548;48.778;9.252;2022-10-16T06:18:27;18.20;;;16.97;;
1122;SDS011;548;48.778;9.252;2022-10-16T06:20:55;18.80;;;17.90;;
1122;SDS011;548;48.778;9.252;2022-10-16T06:23:22;18.57;;;17.57;;
1122;SDS011;548;48.778;9.252;2022-10-16T06:25:49;20.00;;;19.03;;
1122;SDS011;548;48.778;9.252;2022-10-16T06:28:16;18.37;;;17.47;;
1122;SDS011;548;48.778;9.252;2022-10-16T06:30:43;17.53;;;16.60;;
1122;SDS011;548;48.778;9.252;2022-10-16T06:33:10;17.50;;;16.20;;
1122;SDS011;548;48.778;9.252;2022-10-16T06:35:39;18.30;;;17.40;;
1122;SDS011;548;48.778;9.252;2022-10-16T06:38:05;18.30;;;17.47;;
1122;SDS011;548;48.778;9.252;2022-10-16T06:40:32;19.70;;;18.80;;
1122;SDS011;548;48.778;9.252;2022-10-16T06:42:59;18.47;;;16.90;;
1122;SDS011;548;48.778;9.252;2022-10-16T06:45:25;19.67;;;18.57;;
1122;SDS011;548;48.778;9.252;2022-10-16T06:47:52;18.40;;;17.30;;
1122;SDS011;548;48.778;9.252;2022-10-16T06:50:19;16.33;;;15.50;;
1122;SDS011;548;48.778;9.252;2022-10-16T06:52:47;16.23;;;15.50;;
1122;SDS011;548;48.778;9.252;2022-10-16T06:55:14;16.50;;;15.67;;
1122;SDS011;548;48.778;9.252;2022-10-16T06:57:42;16.30;;;15.43;;
1122;SDS011;548;48.778;9.252;2022-10-16T07:00:09;18.67;;;17.30;;
1122;SDS011;548;48.778;9.252;2022-10-16T07:02:36;16.93;;;16.10;;
1122;SDS011;548;48.778;9.252;2022-10-16T07:05:03;17.90;;;17.10;;
1122;SDS011;548;48.778;9.252;2022-10-16T07:07:30;17.90;;;16.77;;
1122;SDS011;548;48.778;9.252;2022-10-16T07:09:58;16.43;;;15.53;;
1122;SDS011;548;48.778;9.252;2022-10-16T07:12:24;18.20;;;17.20;;
1122;SDS011;548;48.778;9.252;2022-10-16T07:14:51;17.80;;;16.70;;
1122;SDS011;548;48.778;9.252;2022-10-16T07:17:19;16.73;;;15.93;;
1122;SDS011;548;48.778;9.252;2022-10-16T07:19:46;17.20;;;16.40;;
1122;SDS011;548;48.778;9.252;2022-10-16T07:22:13;17.03;;;15.77;;
1122;SDS011;548;48.778;9.252;2022-10-16T07:24:39;16.93;;;16.03;;
1122;SDS011;548;48.778;9.252;2022-10-16T07:27:08;17.40;;;16.40;;
1122;SDS011;548;48.778;9.252;2022-10-16T07:29:34;15.90;;;15.00;;
1122;SDS011;548;48.778;9.252;2022-10-16T07:32:01;16.63;;;15.60;;
1122;SDS011;548;48.778;9.252;2022-10-16T07:34:28;17.00;;;16.20;;
1122;SDS011;548;48.778;9.252;2022-10-16T07:36:55;15.43;;;14.70;;
1122;SDS011;548;48.778;9.252;2022-10-16T07:39:22;17.40;;;16.50;;
1122;SDS011;548;48.778;9.252;2022-10-16T07:41:48;16.77;;;15.77;;
1122;SDS011;548;48.778;9.252;2022-10-16T07:44:16;16.60;;;15.80;;
1122;SDS011;548;48.778;9.252;2022-10-16T07:46:43;16.70;;;15.60;;
1122;SDS011;548;48.778;9.252;2022-10-16T07:49:10;16.53;;;15.63;;
1122;SDS011;548;48.778;9.252;2022-10-16T07:51:36;16.47;;;15.63;;
1122;SDS011;548;48.778;9.252;2022-10-16T07:54:04;15.87;;;15.17;;
1122;SDS011;548;48.778;9.252;2022-10-16T07:56:31;15.03;;;14.33;;
1122;SDS011;548;48.778;9.252;2022-10-16T07:58:58;15.33;;;14.53;;
1122;SDS011;548;48.778;9.252;2022-10-16T08:01:26;15.33;;;14.53;;
1122;SDS011;548;48.778;9.252;2022-10-16T08:03:53;15.10;;;14.30;;
1122;SDS011;548;48.778;9.252;2022-10-16T08:06:20;15.53;;;14.70;;
1122;SDS011;548;48.778;9.252;2022-10-16T08:08:47;15.50;;;14.50;;
1122;SDS011;548;48.778;9.252;2022-10-16T08:11:14;15.43;;;14.73;;
1122;SDS011;548;48.778;9.252;2022-10-16T08:13:41;14.57;;;13.97;;
1122;SDS011;548;48.778;9.252;2022-10-16T08:16:07;14.90;;;14.30;;
1122;SDS011;548;48.778;9.252;2022-10-16T08:18:36;15.03;;;14.33;;
1122;SDS011;548;48.778;9.252;2022-10-16T08:21:05;13.97;;;13.27;;
1122;SDS011;548;48.778;9.252;2022-10-16T08:23:32;14.80;;;14.00;;
1122;SDS011;548;48.778;9.252;2022-10-16T08:26:01;14.53;;;13.83;;
1122;SDS011;548;48.778;9.252;2022-10-16T08:28:29;14.13;;;13.33;;
1122;SDS011;548;48.778;9.252;2022-10-16T08:30:56;13.97;;;13.17;;
1122;SDS011;548;48.778;9.252;2022-10-16T08:33:30;13.70;;;13.10;;
1122;SDS011;548;48.778;9.252;2022-10-16T08:35:58;13.27;;;12.70;;
1122;SDS011;548;48.778;9.252;2022-10-16T08:38:24;13.77;;;12.87;;
1122;SDS011;548;48.778;9.252;2022-10-16T08:40:51;12.60;;;12.10;;
1122;SDS011;548;48.778;9.252;2022-10-16T08:43:24;11.50;;;11.10;;
1122;SDS011;548;48.778;9.252;2022-10-16T08:46:08;11.37;;;10.87;;
1122;SDS011;548;48.778;9.252;2022-10-16T08:48:53;12.03;;;11.63;;
1122;SDS011;548;48.778;9.252;2022-10-16T08:51:24;11.97;;;11.33;;
1122;SDS011;548;48.778;9.252;2022-10-16T08:53:53;12.13;;;11.50;;
1122;SDS011;548;48.778;9.252;2022-10-16T08:56:23;12.80;;;12.23;;
1122;SDS011;548;48.778;9.252;2022-10-16T08:58:51;11.80;;;11.30;;
1122;SDS011;548;48.778;9.252;2022-10-16T09:01:19;11.90;;;11.40;;
1122;SDS011;548;48.778;9.252;2022-10-16T09:03:52;12.23;;;11.63;;
1122;SDS011;548;48.778;9.252;2022-10-16T09:06:40;12.37;;;11.37;;
1122;SDS011;548;48.778;9.252;2022-10-16T09:09:17;12.03;;;11.37;;
1122;SDS011;548;48.778;9.252;2022-10-16T09:11:55;11.50;;;11.00;;
1122;SDS011;548;48.778;9.252;2022-10-16T09:14:32;12.10;;;11.63;;
1122;SDS011;548;48.778;9.252;2022-10-16T09:17:14;11.97;;;11.30;;
1122;SDS011;548;48.778;9.252;2022-10-16T09:19:50;12.10;;;11.60;;
1122;SDS011;548;48.778;9.252;2022-10-16T09:22:23;11.60;;;10.70;;
1122;SDS011;548;48.778;9.252;2022-10-16T09:24:53;11.57;;;11.17;;
1122;SDS011;548;48.778;9.252;2022-10-16T09:27:21;10.77;;;10.37;;
1122;SDS011;548;48.778;9.252;2022-10-16T09:29:48;11.63;;;11.23;;
1122;SDS011;548;48.778;9.252;2022-10-16T09:32:15;11.77;;;11.20;;
1122;SDS011;548;48.778;9.252;2022-10-16T09:34:45;11.67;;;11.07;;
1122;SDS011;548;48.778;9.252;2022-10-16T09:37:17;12.03;;;11.03;;
1122;SDS011;548;48.778;9.252;2022-10-16T09:39:47;10.90;;;10.50;;
1122;SDS011;548;48.778;9.252;2022-10-16T09:42:15;10.83;;;10.43;;
1122;SDS011;548;48.778;9.252;2022-10-16T09:44:46;11.07;;;10.57;;
1122;SDS011;548;48.778;9.252;2022-10-16T09:47:15;12.03;;;11.30;;
1122;SDS011;548;48.778;9.252;2022-10-16T09:49:54;11.43;;;10.83;;
1122;SDS011;548;48.778;9.252;2022-10-16T09:52:23;11.27;;;10.77;;
1122;SDS011;548;48.778;9.252;2022-10-16T09:54:53;11.07;;;10.57;;
1122;SDS011;548;48.778;9.252;2022-10-16T09:57:21;11.53;;;10.93;;
1122;SDS011;548;48.778;9.252;2022-10-16T09:59:49;11.40;;;10.80;;
1122;SDS011;548;48.778;9.252;2022-10-16T10:02:17;11.87;;;11.03;;
1122;SDS011;548;48.778;9.252;2022-10-16T10:04:50;11.27;;;10.47;;
1122;SDS011;548;48.778;9.252;2022-10-16T10:07:24;11.30;;;10.43;;
1122;SDS011;548;48.778;9.252;2022-10-16T10:10:04;10.47;;;10.07;;
1122;SDS011;548;48.778;9.252;2022-10-16T10:12:32;11.07;;;10.63;;
1122;SDS011;548;48.778;9.252;2022-10-16T10:15:03;11.43;;;10.70;;
1122;SDS011;548;48.778;9.252;2022-10-16T10:17:32;10.60;;;10.20;;
1122;SDS011;548;48.778;9.252;2022-10-16T10:19:59;11.67;;;11.07;;
1122;SDS011;548;48.778;9.252;2022-10-16T10:22:41;11.73;;;10.93;;
1122;SDS011;548;48.778;9.252;2022-10-16T10:25:26;10.93;;;10.40;;
1122;SDS011;548;48.778;9.252;2022-10-16T10:28:17;11.00;;;10.60;;
1122;SDS011;548;48.778;9.252;2022-10-16T10:30:53;11.80;;;11.27;;
1122;SDS011;548;48.778;9.252;2022-10-16T10:33:27;12.40;;;11.90;;
1122;SDS011;548;48.778;9.252;2022-10-16T10:36:01;11.70;;;11.30;;
1122;SDS011;548;48.778;9.252;2022-10-16T10:38:38;11.40;;;11.00;;
1122;SDS011;548;48.778;9.252;2022-10-16T10:41:20;12.70;;;11.93;;
1122;SDS011;548;48.778;9.252;2022-10-16T10:44:11;11.00;;;10.50;;
1122;SDS011;548;48.778;9.252;2022-10-16T10:46:45;12.07;;;11.67;;
1122;SDS011;548;48.778;9.252;2022-10-16T10:49:28;11.50;;;11.10;;
1122;SDS011;548;48.778;9.252;2022-10-16T10:52:10;11.20;;;10.70;;
1122;SDS011;548;48.778;9.252;2022-10-16T10:54:51;12.77;;;12.10;;
1122;SDS011;548;48.778;9.252;2022-10-16T10:57:29;11.70;;;11.00;;
1122;SDS011;548;48.778;9.252;2022-10-16T11:00:11;11.33;;;10.93;;
1122;SDS011;548;48.778;9.252;2022-10-16T11:02:48;11.20;;;10.80;;
1122;SDS011;548;48.778;9.252;2022-10-16T11:05:23;12.00;;;11.50;;
1122;SDS011;548;48.778;9.252;2022-10-16T11:08:00;11.90;;;11.30;;
1122;SDS011;548;48.778;9.252;2022-10-16T11:10:30;12.37;;;11.77;;
1122;SDS011;548;48.778;9.252;2022-10-16T11:13:07;12.63;;;11.93;;
1122;SDS011;548;48.778;9.252;2022-10-16T11:15:41;12.40;;;12.00;;
1122;SDS011;548;48.778;9.252;2022-10-16T11:18:12;12.50;;;11.80;;
1122;SDS011;548;48.778;9.252;2022-10-16T11:20:45;12.20;;;11.80;;
1122;SDS011;548;48.778;9.252;2022-10-16T11:23:16;12.30;;;11.50;;
1122;SDS011;548;48.778;9.252;2022-10-16T11:25:49;12.33;;;11.73;;
1122;SDS011;548;48.778;9.252;2022-10-16T11:28:20;11.93;;;11.43;;
1122;SDS011;548;48.778;9.252;2022-10-16T11:30:50;11.67;;;11.27;;
1122;SDS011;548;48.778;9.252;2022-10-16T11:33:28;11.70;;;11.30;;
1122;SDS011;548;48.778;9.252;2022-10-16T11:36:00;11.60;;;11.10;;
1122;SDS011;548;48.778;9.252;2022-10-16T11:38:34;12.03;;;11.43;;
1122;SDS011;548;48.778;9.252;2022-10-16T11:41:09;12.30;;;11.80;;
1122;SDS011;548;48.778;9.252;2022-10-16T11:43:48;12.67;;;12.17;;
1122;SDS011;548;48.778;9.252;2022-10-16T11:46:20;12.67;;;12.20;;
1122;SDS011;548;48.778;9.252;2022-10-16T11:48:50;12.30;;;11.90;;
1122;SDS011;548;48.778;9.252;2022-10-16T11:51:22;13.37;;;12.57;;
1122;SDS011;548;48.778;9.252;2022-10-16T11:53:58;12.30;;;11.87;;
1122;SDS011;548;48.778;9.252;2022-10-16T11:56:29;13.83;;;12.50;;
1122;SDS011;548;48.778;9.252;2022-10-16T11:59:00;12.50;;;12.00;;
1122;SDS011;548;48.778;9.252;2022-10-16T12:01:32;12.50;;;12.10;;
1122;SDS011;548;48.778;9.252;2022-10-16T12:04:14;12.90;;;12.40;;
1122;SDS011;548;48.778;9.252;2022-10-16T12:06:46;11.60;;;11.10;;
1122;SDS011;548;48.778;9.252;2022-10-16T12:09:20;12.57;;;11.83;;
1122;SDS011;548;48.778;9.252;2022-10-16T12:11:50;12.60;;;11.87;;
1122;SDS011;548;48.778;9.252;2022-10-16T12:14:20;12.40;;;12.00;;
1122;SDS011;548;48.778;9.252;2022-10-16T12:17:00;12.53;;;12.03;;
1122;SDS011;548;48.778;9.252;2022-10-16T12:19:30;12.90;;;12.00;;
1122;SDS011;548;48.778;9.252;2022-10-16T12:21:58;12.83;;;12.23;;
1122;SDS011;548;48.778;9.252;2022-10-16T12:24:29;13.27;;;12.33;;
1122;SDS011;548;48.778;9.252;2022-10-16T12:27:00;13.20;;;12.70;;
1122;SDS011;548;48.778;9.252;2022-10-16T12:29:34;12.57;;;11.97;;
1122;SDS011;548;48.778;9.252;2022-10-16T12:32:04;12.50;;;11.90;;
1122;SDS011;548;48.778;9.252;2022-10-16T12:34:36;13.60;;;12.90;;
1122;SDS011;548;48.778;9.252;2022-10-16T12:37:10;13.07;;;12.50;;
1122;SDS011;548;48.778;9.252;2022-10-16T12:39:40;13.57;;;13.07;;
1122;SDS011;548;48.778;9.252;2022-10-16T12:42:19;13.10;;;12.70;;
1122;SDS011;548;48.778;9.252;2022-10-16T12:44:50;13.00;;;12.60;;
1122;SDS011;548;48.778;9.252;2022-10-16T12:47:20;12.77;;;12.27;;
1122;SDS011;548;48.778;9.252;2022-10-16T12:49:50;13.33;;;12.57;;
1122;SDS011;548;48.778;9.252;2022-10-16T12:52:27;13.13;;;12.60;;
1122;SDS011;548;48.778;9.252;2022-10-16T12:55:01;12.30;;;11.90;;
1122;SDS011;548;48.778;9.252;2022-10-16T12:57:31;12.50;;;12.10;;
1122;SDS011;548;48.778;9.252;2022-10-16T13:00:12;12.70;;;12.10;;
1122;SDS011;548;48.778;9.252;2022-10-16T13:02:53;13.07;;;12.57;;
1122;SDS011;548;48.778;9.252;2022-10-16T13:05:54;12.43;;;11.93;;
1122;SDS011;548;48.778;9.252;2022-10-16T13:08:39;12.73;;;11.83;;
1122;SDS011;548;48.778;9.252;2022-10-16T13:11:17;11.10;;;10.70;;
1122;SDS011;548;48.778;9.252;2022-10-16T13:13:54;12.30;;;11.80;;
1122;SDS011;548;48.778;9.252;2022-10-16T13:16:44;11.53;;;11.10;;
1122;SDS011;548;48.778;9.252;2022-10-16T13:19:20;12.50;;;11.80;;
1122;SDS011;548;48.778;9.252;2022-10-16T13:21:56;11.80;;;11.40;;
1122;SDS011;548;48.778;9.252;2022-10-16T13:24:32;13.53;;;12.83;;
1122;SDS011;548;48.778;9.252;2022-10-16T13:27:13;12.17;;;11.67;;
1122;SDS011;548;48.778;9.252;2022-10-16T13:29:52;11.27;;;10.80;;
1122;SDS011;548;48.778;9.252;2022-10-16T13:32:26;12.43;;;11.73;;
1122;SDS011;548;48.778;9.252;2022-10-16T13:34:53;13.10;;;12.37;;
1122;SDS011;548;48.778;9.252;2022-10-16T13:37:21;12.20;;;11.70;;
1122;SDS011;548;48.778;9.252;2022-10-16T13:39:48;11.80;;;11.40;;
1122;SDS011;548;48.778;9.252;2022-10-16T13:42:18;13.80;;;13.00;;
1122;SDS011;548;48.778;9.252;2022-10-16T13:44:50;13.73;;;13.10;;
1122;SDS011;548;48.778;9.252;2022-10-16T13:47:18;12.33;;;11.90;;
1122;SDS011;548;48.778;9.252;2022-10-16T13:49:58;12.43;;;11.87;;
1122;SDS011;548;48.778;9.252;2022-10-16T13:52:26;11.93;;;11.53;;
1122;SDS011;548;48.778;9.252;2022-10-16T13:54:53;13.17;;;12.63;;
1122;SDS011;548;48.778;9.252;2022-10-16T13:57:21;12.57;;;12.17;;
1122;SDS011;548;48.778;9.252;2022-10-16T13:59:49;13.03;;;12.63;;
1122;SDS011;548;48.778;9.252;2022-10-16T14:02:18;12.73;;;12.23;;
1122;SDS011;548;48.778;9.252;2022-10-16T14:04:49;13.07;;;12.57;;
1122;SDS011;548;48.778;9.252;2022-10-16T14:07:18;12.90;;;12.33;;
1122;SDS011;548;48.778;9.252;2022-10-16T14:09:49;13.03;;;12.23;;
1122;SDS011;548;48.778;9.252;2022-10-16T14:12:17;13.53;;;13.03;;
1122;SDS011;548;48.778;9.252;2022-10-16T14:14:44;12.20;;;11.70;;
1122;SDS011;548;48.778;9.252;2022-10-16T14:17:13;12.67;;;11.90;;
1122;SDS011;548;48.778;9.252;2022-10-16T14:19:40;12.80;;;12.20;;
1122;SDS011;548;48.778;9.252;2022-10-16T14:22:19;12.87;;;12.30;;
1122;SDS011;548;48.778;9.252;2022-10-16T14:24:58;12.43;;;11.83;;
1122;SDS011;548;48.778;9.252;2022-10-16T14:27:27;12.60;;;12.00;;
1122;SDS011;548;48.778;9.252;2022-10-16T14:30:08;12.40;;;11.90;;
1122;SDS011;548;48.778;9.252;2022-10-16T14:32:40;11.80;;;11.20;;
1122;SDS011;548;48.778;9.252;2022-10-16T14:35:20;12.33;;;11.83;;
1122;SDS011;548;48.778;9.252;2022-10-16T14:37:52;13.53;;;12.70;;
1122;SDS011;548;48.778;9.252;2022-10-16T14:40:20;12.67;;;12.07;;
1122;SDS011;548;48.778;9.252;2022-10-16T14:42:49;12.70;;;12.10;;
1122;SDS011;548;48.778;9.252;2022-10-16T14:45:18;12.60;;;12.10;;
1122;SDS011;548;48.778;9.252;2022-10-16T14:47:47;12.60;;;12.07;;
1122;SDS011;548;48.778;9.252;2022-10-16T14:50:16;13.03;;;12.50;;
1122;SDS011;548;48.778;9.252;2022-10-16T14:52:43;12.63;;;12.13;;
1122;SDS011;548;48.778;9.252;2022-10-16T14:55:11;12.30;;;11.73;;
1122;SDS011;548;48.778;9.252;2022-10-16T14:57:38;12.30;;;11.90;;
1122;SDS011;548;48.778;9.252;2022-10-16T15:00:09;12.77;;;12.27;;
1122;SDS011;548;48.778;9.252;2022-10-16T15:02:42;12.50;;;11.80;;
1122;SDS011;548;48.778;9.252;2022-10-16T15:05:13;12.60;;;12.07;;
1122;SDS011;548;48.778;9.252;2022-10-16T15:07:41;12.83;;;12.20;;
1122;SDS011;548;48.778;9.252;2022-10-16T15:10:08;12.40;;;11.90;;
1122;SDS011;548;48.778;9.252;2022-10-16T15:12:37;12.00;;;11.50;;
1122;SDS011;548;48.778;9.252;2022-10-16T15:15:15;12.03;;;11.63;;
1122;SDS011;548;48.778;9.252;2022-10-16T15:18:03;12.47;;;11.80;;
1122;SDS011;548;48.778;9.252;2022-10-16T15:20:31;12.93;;;12.20;;
1122;SDS011;548;48.778;9.252;2022-10-16T15:22:59;12.67;;;12.17;;
1122;SDS011;548;48.778;9.252;2022-10-16T15:25:36;12.70;;;12.00;;
1122;SDS011;548;48.778;9.252;2022-10-16T15:28:08;12.77;;;12.00;;
1122;SDS011;548;48.778;9.252;2022-10-16T15:30:36;12.67;;;12.17;;
1122;SDS011;548;48.778;9.252;2022-10-16T15:33:04;11.93;;;11.40;;
1122;SDS011;548;48.778;9.252;2022-10-16T15:35:35;12.80;;;12.23;;
1122;SDS011;548;48.778;9.252;2022-10-16T15:38:02;12.87;;;12.37;;
1122;SDS011;548;48.778;9.252;2022-10-16T15:40:29;12.30;;;11.80;;
1122;SDS011;548;48.778;9.252;2022-10-16T15:42:56;13.33;;;12.67;;
1122;SDS011;548;48.778;9.252;2022-10-16T15:45:24;13.20;;;12.60;;
1122;SDS011;548;48.778;9.252;2022-10-16T15:47:51;13.00;;;12.43;;
1122;SDS011;548;48.778;9.252;2022-10-16T15:50:17;14.00;;;13.30;;
1122;SDS011;548;48.778;9.252;2022-10-16T15:52:44;13.97;;;13.33;;
1122;SDS011;548;48.778;9.252;2022-10-16T15:55:11;14.43;;;13.63;;
1122;SDS011;548;48.778;9.252;2022-10-16T15:57:39;14.63;;;13.83;;
1122;SDS011;548;48.778;9.252;2022-10-16T16:00:08;15.03;;;14.03;;
1122;SDS011;548;48.778;9.252;2022-10-16T16:02:39;17.10;;;15.60;;
1122;SDS011;548;48.778;9.252;2022-10-16T16:05:07;16.60;;;15.50;;
1122;SDS011;548;48.778;9.252;2022-10-16T16:07:35;15.83;;;14.63;;
1122;SDS011;548;48.778;9.252;2022-10-16T16:10:04;15.07;;;14.37;;
1122;SDS011;548;48.778;9.252;2022-10-16T16:12:33;15.90;;;15.00;;
1122;SDS011;548;48.778;9.252;2022-10-16T16:15:00;15.07;;;14.27;;
1122;SDS011;548;48.778;9.252;2022-10-16T16:17:26;15.30;;;14.50;;
1122;SDS011;548;48.778;9.252;2022-10-16T16:19:54;15.13;;;14.13;;
1122;SDS011;548;48.778;9.252;2022-10-16T16:22:21;14.47;;;13.70;;
1122;SDS011;548;48.778;9.252;2022-10-16T16:24:48;14.20;;;13.60;;
1122;SDS011;548;48.778;9.252;2022-10-16T16:27:15;14.20;;;13.50;;
1122;SDS011;548;48.778;9.252;2022-10-16T16:29:42;14.33;;;13.53;;
1122;SDS011;548;48.778;9.252;2022-10-16T16:32:08;13.73;;;13.13;;
1122;SDS011;548;48.778;9.252;2022-10-16T16:34:35;14.97;;;14.07;;
1122;SDS011;548;48.778;9.252;2022-10-16T16:37:03;15.07;;;14.27;;
1122;SDS011;548;48.778;9.252;2022-10-16T16:39:30;14.87;;;13.90;;
1122;SDS011;548;48.778;9.252;2022-10-16T16:41:57;15.90;;;15.10;;
1122;SDS011;548;48.778;9.252;2022-10-16T16:44:24;14.23;;;13.63;;
1122;SDS011;548;48.778;9.252;2022-10-16T16:46:51;15.60;;;14.50;;
1122;SDS011;548;48.778;9.252;2022-10-16T16:49:19;15.60;;;14.80;;
1122;SDS011;548;48.778;9.252;2022-10-16T16:51:46;16.17;;;14.97;;
1122;SDS011;548;48.778;9.252;2022-10-16T16:54:14;16.70;;;15.67;;
1122;SDS011;548;48.778;9.252;2022-10-16T16:56:41;16.33;;;15.33;;
1122;SDS011;548;48.778;9.252;2022-10-16T16:59:12;16.07;;;15.10;;
1122;SDS011;548;48.778;9.252;2022-10-16T17:01:40;16.00;;;14.90;;
1122;SDS011;548;48.778;9.252;2022-10-16T17:04:07;15.73;;;14.90;;
1122;SDS011;548;48.778;9.252;2022-10-16T17:06:35;16.73;;;15.93;;